createdAt,value
2023-02-08T00:00:01.655Z,103084.23
2023-02-08T00:05:05.498Z,103090.08
2023-02-08T00:10:10.452Z,103090.67
2023-02-08T00:15:13.649Z,103086.90
2023-02-08T00:20:17.134Z,103094.83
2023-02-08T00:25:19.942Z,103090.90
2023-02-08T00:30:22.702Z,103097.16
2023-02-08T00:35:25.468Z,103093.11
2023-02-08T00:40:28.544Z,103099.07
2023-02-08T00:45:32.989Z,103093.38
2023-02-08T00:50:35.769Z,103094.11
2023-02-08T00:55:38.511Z,103092.58
2023-02-08T01:00:41.592Z,103089.17
2023-02-08T01:05:44.553Z,103088.11
2023-02-08T01:10:48.031Z,103092.84
2023-02-08T01:15:51.050Z,103095.07
2023-02-08T01:20:53.852Z,103098.20
2023-02-08T01:25:56.541Z,103102.21
2023-02-08T01:30:59.378Z,103103.80
2023-02-08T01:36:02.192Z,103100.45
2023-02-08T01:41:06.597Z,103098.21
2023-02-08T01:46:09.528Z,103096.84
2023-02-08T01:51:20.695Z,103100.66
2023-02-08T01:56:34.241Z,103101.18
2023-02-08T02:01:40.022Z,103099.50
2023-02-08T02:06:46.971Z,103101.83
2023-02-08T02:11:51.765Z,103093.33
2023-02-08T02:16:54.566Z,103097.01
2023-02-08T02:22:25.016Z,103093.00
2023-02-08T02:28:01.316Z,103092.35
2023-02-08T02:33:15.388Z,103094.20
2023-02-08T02:38:46.430Z,103101.38
2023-02-08T02:44:00.678Z,103103.46
2023-02-08T02:49:19.854Z,103110.80
2023-02-08T02:54:34.892Z,103116.88
2023-02-08T02:59:39.217Z,103122.80
2023-02-08T03:04:41.919Z,103123.91
2023-02-08T03:10:04.381Z,103129.21
2023-02-08T03:15:33.998Z,103136.21
2023-02-08T03:21:18.080Z,103148.58
2023-02-08T03:26:45.340Z,103149.37
2023-02-08T03:31:56.513Z,103159.56
2023-02-08T03:37:08.259Z,103157.10
2023-02-08T03:42:19.564Z,103161.13
2023-02-08T03:47:29.151Z,103166.56
2023-02-08T03:52:33.429Z,103162.59
2023-02-08T03:57:54.906Z,103167.79
2023-02-08T04:03:04.564Z,103173.20
2023-02-08T04:08:07.469Z,103181.61
2023-02-08T04:13:10.161Z,103181.65
2023-02-08T04:18:13.499Z,103180.83
2023-02-08T04:23:16.225Z,103175.61
2023-02-08T04:28:18.962Z,103175.00
2023-02-08T04:33:21.675Z,103176.33
2023-02-08T04:38:24.455Z,103178.19
2023-02-08T04:43:27.284Z,103182.60
2023-02-08T04:48:30.198Z,103181.86
2023-02-08T04:53:33.308Z,103185.07
2023-02-08T04:58:36.385Z,103188.19
2023-02-08T05:03:39.150Z,103190.28
2023-02-08T05:08:42.021Z,103190.21
2023-02-08T05:13:44.705Z,103185.30
2023-02-08T05:18:47.382Z,103193.89
2023-02-08T05:23:51.480Z,103196.16
2023-02-08T05:28:54.241Z,103197.31
2023-02-08T05:33:57.041Z,103207.93
2023-02-08T05:38:59.787Z,103212.35
2023-02-08T05:44:02.661Z,103208.59
2023-02-08T05:49:05.538Z,103205.55
2023-02-08T05:54:08.345Z,103205.53
2023-02-08T05:59:11.299Z,103211.94
2023-02-08T06:04:14.100Z,103218.13
2023-02-08T06:09:16.948Z,103218.83
2023-02-08T06:14:19.755Z,103225.20
2023-02-08T06:19:22.470Z,103227.66
2023-02-08T06:24:34.340Z,103230.11
2023-02-08T06:29:37.064Z,103236.64
2023-02-08T06:34:39.762Z,103233.26
2023-02-08T06:39:42.869Z,103230.79
2023-02-08T06:44:54.634Z,103229.36
2023-02-08T06:49:58.154Z,103229.02
2023-02-08T06:55:01.027Z,103231.17
2023-02-08T07:00:04.970Z,103234.02
2023-02-08T07:05:08.110Z,103244.81
2023-02-08T07:10:10.844Z,103250.24
2023-02-08T07:15:13.928Z,103253.50
2023-02-08T07:20:16.847Z,103253.17
2023-02-08T07:25:19.653Z,103250.15
2023-02-08T07:30:22.393Z,103254.34
2023-02-08T07:35:25.155Z,103248.09
2023-02-08T07:40:27.901Z,103247.66
2023-02-08T07:45:30.946Z,103240.67
2023-02-08T07:50:33.890Z,103243.95
2023-02-08T07:55:36.770Z,103238.77
2023-02-08T08:00:39.972Z,103238.89
2023-02-08T08:05:44.319Z,103234.20
2023-02-08T08:10:47.189Z,103232.14
2023-02-08T08:15:50.033Z,103235.41
2023-02-08T08:20:52.757Z,103241.20
2023-02-08T08:25:55.909Z,103247.66
2023-02-08T08:30:58.763Z,103254.88
2023-02-08T08:36:01.752Z,103266.08
2023-02-08T08:41:14.953Z,103275.98
2023-02-08T08:46:18.024Z,103273.85
2023-02-08T08:51:21.407Z,103276.00
2023-02-08T08:56:24.313Z,103272.05
2023-02-08T09:01:27.111Z,103267.94
2023-02-08T09:06:30.154Z,103270.54
2023-02-08T09:11:36.142Z,103268.95
2023-02-08T09:16:41.467Z,103258.51
2023-02-08T09:21:44.250Z,103252.16
2023-02-08T09:26:47.258Z,103249.94
2023-02-08T09:31:54.739Z,103254.30
2023-02-08T09:36:59.537Z,103254.45
2023-02-08T09:42:13.389Z,103269.77
2023-02-08T09:47:37.862Z,103280.15
2023-02-08T09:52:42.667Z,103286.92
2023-02-08T09:57:51.948Z,103277.81
2023-02-08T10:02:59.963Z,103276.29
2023-02-08T10:08:03.252Z,103268.17
2023-02-08T10:13:40.709Z,103266.21
2023-02-08T10:18:57.279Z,103272.05
2023-02-08T10:24:14.294Z,103269.97
2023-02-08T10:29:27.540Z,103267.98
2023-02-08T10:34:36.643Z,103255.81
2023-02-08T10:39:39.712Z,103247.98
2023-02-08T10:45:22.781Z,103253.26
2023-02-08T10:50:36.811Z,103238.23
2023-02-08T10:55:43.017Z,103228.77
2023-02-08T11:00:48.437Z,103228.40
2023-02-08T11:05:52.457Z,103227.19
2023-02-08T11:10:55.167Z,103219.76
2023-02-08T11:16:04.076Z,103220.80
2023-02-08T11:21:11.745Z,103217.14
2023-02-08T11:26:31.890Z,103212.44
2023-02-08T11:31:36.754Z,103200.90
2023-02-08T11:36:47.262Z,103196.60
2023-02-08T11:41:55.533Z,103185.44
2023-02-08T11:47:04.768Z,103178.94
2023-02-08T11:52:25.464Z,103167.86
2023-02-08T11:57:28.345Z,103171.52
2023-02-08T12:02:37.454Z,103174.84
2023-02-08T12:07:55.412Z,103178.27
2023-02-08T12:13:24.683Z,103184.34
2023-02-08T12:18:48.632Z,103189.80
2023-02-08T12:23:59.197Z,103192.19
2023-02-08T12:29:11.226Z,103187.04
2023-02-08T12:34:27.694Z,103177.93
2023-02-08T12:40:10.237Z,103179.07
2023-02-08T12:45:50.849Z,103181.07
2023-02-08T12:51:05.061Z,103168.15
2023-02-08T12:56:21.155Z,103161.52
2023-02-08T13:01:45.203Z,103162.38
2023-02-08T13:06:57.755Z,103165.50
2023-02-08T13:12:17.720Z,103166.75
2023-02-08T13:17:54.147Z,103157.67
2023-02-08T13:23:10.136Z,103157.04
2023-02-08T13:28:22.739Z,103161.84
2023-02-08T13:34:01.361Z,103157.80
2023-02-08T13:39:24.375Z,103163.59
2023-02-08T13:44:40.322Z,103162.94
2023-02-08T13:49:50.049Z,103158.98
2023-02-08T13:55:33.964Z,103153.48
2023-02-08T14:00:56.658Z,103145.66
2023-02-08T14:06:22.528Z,103144.23
2023-02-08T14:11:28.747Z,103144.90
2023-02-08T14:16:41.602Z,103145.20
2023-02-08T14:22:07.707Z,103139.67
2023-02-08T14:27:28.567Z,103130.17
2023-02-08T14:32:35.695Z,103127.50
2023-02-08T14:37:38.846Z,103128.92
2023-02-08T14:43:16.698Z,103128.68
2023-02-08T14:48:31.450Z,103126.33
2023-02-08T14:53:44.729Z,103123.16
2023-02-08T14:59:00.331Z,103121.77
2023-02-08T15:04:03.825Z,103125.56
2023-02-08T15:09:16.475Z,103115.08
2023-02-08T15:14:21.254Z,103129.39
2023-02-08T15:19:38.520Z,103133.48
2023-02-08T15:24:53.814Z,103125.63
2023-02-08T15:29:56.961Z,103122.33
2023-02-08T15:35:01.881Z,103120.42
2023-02-08T15:40:05.236Z,103122.61
2023-02-08T15:45:24.618Z,103128.52
2023-02-08T15:50:29.193Z,103119.30
2023-02-08T15:55:37.303Z,103120.70
2023-02-08T16:00:44.761Z,103116.34
2023-02-08T16:06:02.493Z,103117.06
2023-02-08T16:11:20.397Z,103111.14
2023-02-08T16:16:26.672Z,103102.71
2023-02-08T16:21:38.717Z,103102.80
2023-02-08T16:27:19.462Z,103093.80
2023-02-08T16:32:49.193Z,103091.31
2023-02-08T16:38:00.367Z,103084.77
2023-02-08T16:43:32.162Z,103087.70
2023-02-08T16:48:36.786Z,103079.67
2023-02-08T16:53:42.633Z,103081.80
2023-02-08T16:58:46.014Z,103071.96
2023-02-08T17:03:50.421Z,103068.60
2023-02-08T17:08:53.453Z,103067.15
2023-02-08T17:13:58.440Z,103067.52
2023-02-08T17:19:01.881Z,103071.41
2023-02-08T17:24:05.340Z,103074.63
2023-02-08T17:29:08.401Z,103074.23
2023-02-08T17:34:11.392Z,103074.55
2023-02-08T17:39:15.250Z,103079.02
2023-02-08T17:44:21.083Z,103070.29
2023-02-08T17:49:23.816Z,103071.86
2023-02-08T17:54:26.557Z,103066.44
2023-02-08T17:59:29.478Z,103061.18
2023-02-08T18:04:32.323Z,103060.23
2023-02-08T18:09:35.402Z,103051.74
2023-02-08T18:14:40.540Z,103048.20
2023-02-08T18:19:45.240Z,103058.15
2023-02-08T18:24:49.435Z,103061.15
2023-02-08T18:29:53.054Z,103058.80
2023-02-08T18:34:58.665Z,103055.39
2023-02-08T18:40:01.643Z,103053.39
2023-02-08T18:45:05.356Z,103050.38
2023-02-08T18:50:09.658Z,103053.99
2023-02-08T18:55:12.485Z,103046.38
2023-02-08T19:00:16.212Z,103044.55
2023-02-08T19:05:19.088Z,103048.20
2023-02-08T19:10:21.855Z,103039.02
2023-02-08T19:15:24.562Z,103038.88
2023-02-08T19:20:27.355Z,103031.70
2023-02-08T19:25:30.868Z,103026.34
2023-02-08T19:30:33.854Z,103022.18
2023-02-08T19:35:38.506Z,103010.29
2023-02-08T19:40:41.556Z,103008.80
2023-02-08T19:45:45.038Z,103011.97
2023-02-08T19:50:59.759Z,103007.71
2023-02-08T19:56:09.128Z,103005.83
2023-02-08T20:01:18.185Z,103005.83
2023-02-08T20:06:23.939Z,102995.59
2023-02-08T20:11:30.884Z,102986.03
2023-02-08T20:16:34.456Z,102974.16
2023-02-08T20:21:40.351Z,102964.25
2023-02-08T20:26:46.331Z,102967.76
2023-02-08T20:31:53.512Z,102965.42
2023-02-08T20:37:11.624Z,102953.75
2023-02-08T20:42:15.687Z,102952.91
2023-02-08T20:47:19.793Z,102950.67
2023-02-08T20:52:22.623Z,102952.48
2023-02-08T20:57:25.476Z,102950.04
2023-02-08T21:02:28.284Z,102944.02
2023-02-08T21:07:31.296Z,102945.95
2023-02-08T21:12:34.072Z,102943.35
2023-02-08T21:17:39.891Z,102937.11
2023-02-08T21:22:43.489Z,102931.42
2023-02-08T21:27:46.298Z,102925.06
2023-02-08T21:32:49.164Z,102924.41
2023-02-08T21:37:51.907Z,102924.91
2023-02-08T21:42:54.678Z,102921.31
2023-02-08T21:47:58.981Z,102913.06
2023-02-08T21:53:20.259Z,102908.90
2023-02-08T21:58:23.872Z,102900.10
2023-02-08T22:03:27.890Z,102888.26
2023-02-08T22:08:30.686Z,102883.33
2023-02-08T22:13:34.804Z,102885.35
2023-02-08T22:18:41.277Z,102886.39
2023-02-08T22:23:44.038Z,102882.39
2023-02-08T22:28:46.833Z,102877.50
2023-02-08T22:33:53.064Z,102872.77
2023-02-08T22:38:56.494Z,102868.39
2023-02-08T22:43:59.261Z,102860.41
2023-02-08T22:49:02.020Z,102853.64
2023-02-08T22:54:04.931Z,102849.04
2023-02-08T22:59:07.667Z,102842.16
2023-02-08T23:04:10.829Z,102840.14
2023-02-08T23:09:16.002Z,102831.63
2023-02-08T23:14:18.874Z,102816.10
2023-02-08T23:19:21.739Z,102811.92
2023-02-08T23:24:24.595Z,102810.46
2023-02-08T23:29:27.411Z,102816.91
2023-02-08T23:34:30.284Z,102803.60
2023-02-08T23:39:33.924Z,102794.55
2023-02-08T23:44:37.336Z,102796.05
2023-02-08T23:49:40.119Z,102788.98
2023-02-08T23:54:44.834Z,102777.99
2023-02-08T23:59:47.672Z,102778.42
